createdAt,value
2017-03-29T00:00:10.604Z,0
2017-03-29T00:01:11.841Z,0
2017-03-29T00:02:13.111Z,0
2017-03-29T00:03:14.385Z,0
2017-03-29T00:04:15.609Z,0
2017-03-29T00:05:16.873Z,0
2017-03-29T00:06:18.249Z,0
2017-03-29T00:07:19.488Z,0
2017-03-29T00:08:20.775Z,0
2017-03-29T00:09:22.018Z,0
2017-03-29T00:10:23.254Z,0
2017-03-29T00:11:24.482Z,0
2017-03-29T00:12:25.771Z,0
2017-03-29T00:13:27.036Z,0
2017-03-29T00:14:28.347Z,0
2017-03-29T00:15:29.572Z,0
2017-03-29T00:16:30.829Z,0
2017-03-29T00:17:32.078Z,0
2017-03-29T00:18:33.329Z,0
2017-03-29T00:19:34.564Z,0
2017-03-29T00:20:35.814Z,0
2017-03-29T00:21:37.052Z,0
2017-03-29T00:22:38.453Z,0
2017-03-29T00:23:39.636Z,0
2017-03-29T00:24:40.889Z,0
2017-03-29T00:25:42.128Z,0
2017-03-29T00:26:43.421Z,0
2017-03-29T00:27:44.660Z,0
2017-03-29T00:28:45.914Z,0
2017-03-29T00:29:47.156Z,0
2017-03-29T00:30:48.397Z,0
2017-03-29T00:31:49.683Z,0
2017-03-29T00:32:50.923Z,0
2017-03-29T00:33:52.165Z,0
2017-03-29T00:34:53.402Z,0
2017-03-29T00:35:54.631Z,0
2017-03-29T00:36:55.870Z,0
2017-03-29T00:37:57.338Z,0
2017-03-29T00:38:58.605Z,0
2017-03-29T00:39:59.823Z,0
2017-03-29T00:41:01.071Z,0
2017-03-29T00:42:02.319Z,0
2017-03-29T00:43:03.538Z,0
2017-03-29T00:44:04.795Z,0
2017-03-29T00:45:06.041Z,0
2017-03-29T00:46:07.332Z,0
2017-03-29T00:47:08.571Z,0
2017-03-29T00:48:09.811Z,0
2017-03-29T00:49:11.056Z,0
2017-03-29T00:50:12.303Z,0
2017-03-29T00:51:13.580Z,0
2017-03-29T00:52:14.834Z,0
2017-03-29T00:53:16.078Z,0
2017-03-29T00:54:17.297Z,0
2017-03-29T00:55:18.556Z,0
2017-03-29T00:56:19.830Z,0
2017-03-29T00:57:21.298Z,0
2017-03-29T00:58:22.481Z,0
2017-03-29T00:59:23.712Z,0
2017-03-29T01:00:24.952Z,0
2017-03-29T01:01:26.270Z,0
2017-03-29T01:02:27.509Z,0
2017-03-29T01:03:28.816Z,0
2017-03-29T01:04:30.067Z,0
2017-03-29T01:05:31.321Z,0
2017-03-29T01:06:32.649Z,0
2017-03-29T01:07:33.880Z,0
2017-03-29T01:08:35.163Z,0
2017-03-29T01:09:36.402Z,0
2017-03-29T01:10:37.689Z,0
2017-03-29T01:11:39.052Z,0
2017-03-29T01:12:40.297Z,0
2017-03-29T01:13:41.550Z,0
2017-03-29T01:14:42.978Z,0
2017-03-29T01:15:44.231Z,0
2017-03-29T01:16:45.447Z,0
2017-03-29T01:17:46.713Z,0
2017-03-29T01:18:47.950Z,0
2017-03-29T01:19:49.189Z,0
2017-03-29T01:20:50.491Z,0
2017-03-29T01:21:51.731Z,0
2017-03-29T01:22:52.986Z,0
2017-03-29T01:23:54.227Z,0
2017-03-29T01:24:55.461Z,0
2017-03-29T01:25:56.735Z,0
2017-03-29T01:26:58.007Z,0
2017-03-29T01:27:59.279Z,0
2017-03-29T01:29:00.494Z,0
2017-03-29T01:30:01.736Z,0
2017-03-29T01:31:03.024Z,0
2017-03-29T01:32:04.291Z,0
2017-03-29T01:33:05.510Z,0
2017-03-29T01:34:06.769Z,0
2017-03-29T01:35:08.120Z,0
2017-03-29T01:36:09.377Z,0
2017-03-29T01:37:10.606Z,0
2017-03-29T01:38:11.833Z,0
2017-03-29T01:39:13.130Z,0
2017-03-29T01:40:14.448Z,0
2017-03-29T01:41:15.686Z,0
2017-03-29T01:42:16.916Z,0
2017-03-29T01:43:18.154Z,0
2017-03-29T01:44:19.392Z,0
2017-03-29T01:45:20.638Z,0
2017-03-29T01:46:21.930Z,0
2017-03-29T01:47:23.200Z,0
2017-03-29T01:48:24.617Z,0
2017-03-29T01:49:25.856Z,0
2017-03-29T01:50:27.096Z,0
2017-03-29T01:51:28.343Z,0
2017-03-29T01:52:29.603Z,0
2017-03-29T01:53:30.845Z,0
2017-03-29T01:54:32.077Z,0
2017-03-29T01:55:33.318Z,0
2017-03-29T01:56:34.595Z,0
2017-03-29T01:57:35.832Z,0
2017-03-29T01:58:37.088Z,0
2017-03-29T01:59:38.322Z,0
2017-03-29T02:00:39.616Z,0
2017-03-29T02:01:40.845Z,0
2017-03-29T02:02:42.114Z,0
2017-03-29T02:03:43.331Z,0
2017-03-29T02:04:44.692Z,0
2017-03-29T02:05:45.943Z,0
2017-03-29T02:06:47.174Z,0
2017-03-29T02:07:48.431Z,0
2017-03-29T02:08:49.692Z,0
2017-03-29T02:09:50.949Z,0
2017-03-29T02:10:52.244Z,0
2017-03-29T02:11:53.487Z,0
2017-03-29T02:12:54.848Z,0
2017-03-29T02:13:56.098Z,0
2017-03-29T02:14:57.323Z,0
2017-03-29T02:15:58.588Z,0
2017-03-29T02:16:59.814Z,0
2017-03-29T02:18:01.075Z,0
2017-03-29T02:19:02.297Z,0
2017-03-29T02:20:03.558Z,0
2017-03-29T02:21:04.790Z,0
2017-03-29T02:22:06.019Z,0
2017-03-29T02:23:07.273Z,0
2017-03-29T02:24:08.607Z,0
2017-03-29T02:25:09.854Z,0
2017-03-29T02:26:11.097Z,0
2017-03-29T02:27:12.535Z,0
2017-03-29T02:28:13.838Z,0
2017-03-29T02:29:15.150Z,0
2017-03-29T02:30:16.395Z,0
2017-03-29T02:31:17.626Z,0
2017-03-29T02:32:18.871Z,0
2017-03-29T02:33:20.102Z,0
2017-03-29T02:34:21.367Z,0
2017-03-29T02:35:22.622Z,0
2017-03-29T02:36:23.975Z,0
2017-03-29T02:37:25.215Z,0
2017-03-29T02:38:26.456Z,0
2017-03-29T02:39:27.722Z,0
2017-03-29T02:40:28.942Z,0
2017-03-29T02:41:30.369Z,0
2017-03-29T02:42:31.510Z,0
2017-03-29T02:43:32.754Z,0
2017-03-29T02:44:34.006Z,0
2017-03-29T02:45:35.317Z,0
2017-03-29T02:46:36.696Z,0
2017-03-29T02:47:37.943Z,0
2017-03-29T02:48:39.209Z,0
2017-03-29T02:49:40.427Z,0
2017-03-29T02:50:41.667Z,0
2017-03-29T02:51:42.905Z,0
2017-03-29T02:52:44.142Z,0
2017-03-29T02:53:45.367Z,0
2017-03-29T02:54:46.605Z,0
2017-03-29T02:55:47.937Z,0
2017-03-29T02:56:49.216Z,0
2017-03-29T02:57:50.478Z,0
2017-03-29T02:58:51.766Z,0
2017-03-29T02:59:53.004Z,0
2017-03-29T03:00:54.273Z,0
2017-03-29T03:01:55.472Z,0
2017-03-29T03:02:56.812Z,0
2017-03-29T03:03:58.068Z,0
2017-03-29T03:04:59.328Z,0
2017-03-29T03:06:00.609Z,0
2017-03-29T03:07:01.839Z,0
2017-03-29T03:08:03.120Z,0
2017-03-29T03:09:04.386Z,0
2017-03-29T03:10:05.624Z,0
2017-03-29T03:11:06.997Z,0
2017-03-29T03:12:08.235Z,0
2017-03-29T03:13:09.506Z,0
2017-03-29T03:14:10.772Z,0
2017-03-29T03:15:12.004Z,0
2017-03-29T03:16:13.250Z,0
2017-03-29T03:17:14.550Z,0
2017-03-29T03:18:15.840Z,0
2017-03-29T03:19:17.252Z,0
2017-03-29T03:20:18.670Z,0
2017-03-29T03:21:19.927Z,0
2017-03-29T03:22:21.174Z,0
2017-03-29T03:23:22.397Z,0
2017-03-29T03:24:23.636Z,0
2017-03-29T03:25:24.881Z,0
2017-03-29T03:26:26.132Z,0
2017-03-29T03:27:27.519Z,0
2017-03-29T03:28:28.729Z,0
2017-03-29T03:29:29.969Z,0
2017-03-29T03:30:31.209Z,0
2017-03-29T03:31:32.451Z,0
2017-03-29T03:32:33.700Z,0
2017-03-29T03:33:34.936Z,0
2017-03-29T03:34:36.175Z,0
2017-03-29T03:35:37.434Z,0
2017-03-29T03:36:38.655Z,0
2017-03-29T03:37:39.894Z,0
2017-03-29T03:38:41.123Z,0
2017-03-29T03:39:42.418Z,0
2017-03-29T03:40:43.662Z,0
2017-03-29T03:41:44.999Z,0
2017-03-29T03:42:46.245Z,0
2017-03-29T03:43:47.492Z,0
2017-03-29T03:44:48.755Z,0
2017-03-29T03:45:50.087Z,0
2017-03-29T03:46:51.370Z,0
2017-03-29T03:47:52.606Z,0
2017-03-29T03:48:53.843Z,0
2017-03-29T03:49:55.084Z,0
2017-03-29T03:50:56.463Z,0
2017-03-29T03:51:57.740Z,0
2017-03-29T03:52:59.039Z,0
2017-03-29T03:54:00.290Z,0
2017-03-29T03:55:01.519Z,0
2017-03-29T03:56:02.772Z,0
2017-03-29T03:57:04.019Z,0
2017-03-29T03:58:05.324Z,0
2017-03-29T03:59:06.558Z,0
2017-03-29T04:00:07.794Z,0
2017-03-29T04:01:09.053Z,0
2017-03-29T04:02:10.295Z,0
2017-03-29T04:03:11.534Z,0
2017-03-29T04:04:12.781Z,0
2017-03-29T04:05:14.031Z,0
2017-03-29T04:06:15.280Z,0
2017-03-29T04:07:16.556Z,0
2017-03-29T04:08:17.847Z,0
2017-03-29T04:09:19.074Z,0
2017-03-29T04:10:20.336Z,0
2017-03-29T04:11:21.684Z,0
2017-03-29T04:12:22.971Z,0
2017-03-29T04:13:24.214Z,0
2017-03-29T04:14:25.462Z,0
2017-03-29T04:15:26.778Z,0
2017-03-29T04:16:28.011Z,0
2017-03-29T04:17:29.247Z,0
2017-03-29T04:18:30.525Z,0
2017-03-29T04:19:31.740Z,0
2017-03-29T04:20:33.007Z,0
2017-03-29T04:21:34.252Z,0
2017-03-29T04:22:35.640Z,0
2017-03-29T04:23:36.918Z,0
2017-03-29T04:24:38.151Z,0
2017-03-29T04:25:39.408Z,0
2017-03-29T04:26:40.655Z,0
2017-03-29T04:27:41.894Z,0
2017-03-29T04:28:43.129Z,0
2017-03-29T04:29:44.552Z,0
2017-03-29T04:30:45.809Z,0
2017-03-29T04:31:47.056Z,0
2017-03-29T04:32:48.289Z,0
2017-03-29T04:33:49.544Z,0
2017-03-29T04:34:50.888Z,0
2017-03-29T04:35:52.182Z,0
2017-03-29T04:36:53.405Z,0
2017-03-29T04:37:54.681Z,0
2017-03-29T04:38:55.934Z,0
2017-03-29T04:39:57.240Z,0
2017-03-29T04:40:58.495Z,0
2017-03-29T04:41:59.727Z,0
2017-03-29T04:43:01.022Z,0
2017-03-29T04:44:02.275Z,0
2017-03-29T04:45:03.518Z,0
2017-03-29T04:46:04.793Z,0
2017-03-29T04:47:06.091Z,0
2017-03-29T04:48:07.354Z,0
2017-03-29T04:49:08.635Z,0
2017-03-29T04:50:09.895Z,0
2017-03-29T04:51:11.112Z,0
2017-03-29T04:52:12.395Z,0
2017-03-29T04:53:13.638Z,0
2017-03-29T04:54:14.889Z,0
2017-03-29T04:55:16.124Z,0
2017-03-29T04:56:17.367Z,0
2017-03-29T04:57:18.609Z,0
2017-03-29T04:58:19.968Z,0
2017-03-29T04:59:21.284Z,0
2017-03-29T05:00:22.589Z,0
2017-03-29T05:01:23.826Z,0
2017-03-29T05:02:25.195Z,0
2017-03-29T05:03:26.412Z,0
2017-03-29T05:04:27.649Z,5
2017-03-29T05:05:28.894Z,5
2017-03-29T05:06:30.148Z,5
2017-03-29T05:07:31.393Z,5
2017-03-29T05:08:32.955Z,5
2017-03-29T05:09:34.194Z,5
2017-03-29T05:10:35.443Z,5
2017-03-29T05:11:36.746Z,5
2017-03-29T05:12:37.993Z,5
2017-03-29T05:13:39.240Z,5
2017-03-29T05:14:40.505Z,5
2017-03-29T05:15:41.741Z,10
2017-03-29T05:16:42.998Z,10
2017-03-29T05:17:44.238Z,10
2017-03-29T05:18:45.508Z,10
2017-03-29T05:19:46.767Z,10
2017-03-29T05:20:48.004Z,5
2017-03-29T05:21:49.283Z,5
2017-03-29T05:22:50.642Z,10
2017-03-29T05:23:51.866Z,10
2017-03-29T05:24:53.147Z,10
2017-03-29T05:25:54.438Z,10
2017-03-29T05:26:55.652Z,15
2017-03-29T05:27:56.892Z,15
2017-03-29T05:28:58.142Z,20
2017-03-29T05:29:59.489Z,25
2017-03-29T05:31:00.770Z,30
2017-03-29T05:32:02.007Z,35
2017-03-29T05:33:03.476Z,35
2017-03-29T05:34:04.735Z,35
2017-03-29T05:35:05.991Z,35
2017-03-29T05:36:07.295Z,40
2017-03-29T05:37:08.645Z,35
2017-03-29T05:38:09.887Z,35
2017-03-29T05:39:11.137Z,35
2017-03-29T05:40:12.411Z,35
2017-03-29T05:41:13.638Z,35
2017-03-29T05:42:14.983Z,35
2017-03-29T05:43:16.208Z,35
2017-03-29T05:44:17.459Z,35
2017-03-29T05:45:18.730Z,35
2017-03-29T05:46:19.989Z,40
2017-03-29T05:47:21.246Z,40
2017-03-29T05:48:22.553Z,45
2017-03-29T05:49:23.787Z,40
2017-03-29T05:50:25.119Z,40
2017-03-29T05:51:26.395Z,40
2017-03-29T05:52:27.635Z,40
2017-03-29T05:53:28.924Z,40
2017-03-29T05:54:30.212Z,45
2017-03-29T05:55:31.534Z,50
2017-03-29T05:56:32.845Z,60
2017-03-29T05:57:34.085Z,65
2017-03-29T05:58:35.372Z,65
2017-03-29T05:59:36.623Z,65
2017-03-29T06:00:37.863Z,70
2017-03-29T06:01:39.127Z,70
2017-03-29T06:02:40.352Z,70
2017-03-29T06:03:41.618Z,70
2017-03-29T06:04:42.862Z,70
2017-03-29T06:05:44.255Z,70
2017-03-29T06:06:45.504Z,70
2017-03-29T06:07:46.814Z,70
2017-03-29T06:08:48.046Z,70
2017-03-29T06:09:49.285Z,75
2017-03-29T06:10:50.565Z,75
2017-03-29T06:11:51.797Z,80
2017-03-29T06:12:53.064Z,75
2017-03-29T06:13:54.319Z,75
2017-03-29T06:14:55.558Z,80
2017-03-29T06:15:56.799Z,80
2017-03-29T06:16:58.039Z,75
2017-03-29T06:17:59.299Z,70
2017-03-29T06:19:00.546Z,70
2017-03-29T06:20:01.857Z,70
2017-03-29T06:21:03.097Z,70
2017-03-29T06:22:04.335Z,75
2017-03-29T06:23:05.576Z,80
2017-03-29T06:24:06.863Z,85
2017-03-29T06:25:08.118Z,85
2017-03-29T06:26:09.388Z,90
2017-03-29T06:27:10.631Z,95
2017-03-29T06:28:11.869Z,100
2017-03-29T06:29:13.109Z,105
2017-03-29T06:30:14.353Z,110
2017-03-29T06:31:15.600Z,110
2017-03-29T06:32:16.855Z,110
2017-03-29T06:33:18.102Z,110
2017-03-29T06:34:19.447Z,110
2017-03-29T06:35:20.706Z,105
2017-03-29T06:36:21.930Z,110
2017-03-29T06:37:23.180Z,120
2017-03-29T06:38:24.458Z,125
2017-03-29T06:39:25.695Z,125
2017-03-29T06:40:27.061Z,120
2017-03-29T06:41:28.300Z,115
2017-03-29T06:42:29.548Z,120
2017-03-29T06:43:30.881Z,125
2017-03-29T06:44:32.104Z,140
2017-03-29T06:45:33.353Z,150
2017-03-29T06:46:34.600Z,160
2017-03-29T06:47:35.835Z,155
2017-03-29T06:48:37.072Z,155
2017-03-29T06:49:38.323Z,150
2017-03-29T06:50:39.578Z,150
2017-03-29T06:51:40.942Z,160
2017-03-29T06:52:42.196Z,165
2017-03-29T06:53:43.430Z,165
2017-03-29T06:54:45.029Z,155
2017-03-29T06:55:46.195Z,155
2017-03-29T06:56:47.452Z,140
2017-03-29T06:57:48.697Z,120
2017-03-29T06:58:49.952Z,130
2017-03-29T06:59:51.209Z,130
2017-03-29T07:00:52.478Z,120
2017-03-29T07:01:53.817Z,130
2017-03-29T07:02:55.164Z,160
2017-03-29T07:03:56.440Z,175
2017-03-29T07:04:57.786Z,170
2017-03-29T07:05:59.003Z,160
2017-03-29T07:07:00.245Z,160
2017-03-29T07:08:01.492Z,165
2017-03-29T07:09:02.711Z,160
2017-03-29T07:10:04.005Z,145
2017-03-29T07:11:05.272Z,130
2017-03-29T07:12:06.546Z,125
2017-03-29T07:13:07.762Z,130
2017-03-29T07:14:09.008Z,110
2017-03-29T07:15:10.282Z,90
2017-03-29T07:16:11.527Z,100
2017-03-29T07:17:12.786Z,135
2017-03-29T07:18:14.048Z,165
2017-03-29T07:19:15.281Z,175
2017-03-29T07:20:16.535Z,165
2017-03-29T07:21:17.763Z,170
2017-03-29T07:22:19.017Z,200
2017-03-29T07:23:20.251Z,175
2017-03-29T07:24:21.503Z,170
2017-03-29T07:25:22.924Z,200
2017-03-29T07:26:24.168Z,225
2017-03-29T07:27:25.409Z,250
2017-03-29T07:28:26.686Z,265
2017-03-29T07:29:27.936Z,295
2017-03-29T07:30:29.206Z,305
2017-03-29T07:31:30.475Z,300
2017-03-29T07:32:31.755Z,295
2017-03-29T07:33:33.000Z,285
2017-03-29T07:34:34.252Z,225
2017-03-29T07:35:35.532Z,190
2017-03-29T07:36:36.852Z,190
2017-03-29T07:37:38.091Z,210
2017-03-29T07:38:39.460Z,245
2017-03-29T07:39:40.778Z,270
2017-03-29T07:40:42.037Z,305
2017-03-29T07:41:43.285Z,320
2017-03-29T07:42:44.553Z,335
2017-03-29T07:43:45.782Z,345
2017-03-29T07:44:47.006Z,320
2017-03-29T07:45:48.362Z,340
2017-03-29T07:46:49.610Z,375
2017-03-29T07:47:50.929Z,390
2017-03-29T07:48:52.189Z,395
2017-03-29T07:49:53.429Z,405
2017-03-29T07:50:54.708Z,430
2017-03-29T07:51:55.988Z,445
2017-03-29T07:52:57.245Z,395
2017-03-29T07:53:58.512Z,395
2017-03-29T07:54:59.743Z,410
2017-03-29T07:56:01.113Z,450
2017-03-29T07:57:02.458Z,455
2017-03-29T07:58:03.776Z,465
2017-03-29T07:59:05.026Z,505
2017-03-29T08:00:06.285Z,540
2017-03-29T08:01:07.531Z,570
2017-03-29T08:02:08.759Z,630
2017-03-29T08:03:10.037Z,710
2017-03-29T08:04:11.377Z,775
2017-03-29T08:05:12.617Z,965
2017-03-29T08:06:13.884Z,780
2017-03-29T08:07:15.106Z,865
2017-03-29T08:08:16.347Z,850
2017-03-29T08:09:17.659Z,1050
2017-03-29T08:10:19.038Z,1425
2017-03-29T08:11:20.269Z,1400
2017-03-29T08:12:21.508Z,1375
2017-03-29T08:13:22.767Z,1450
2017-03-29T08:14:24.004Z,1250
2017-03-29T08:15:25.277Z,980
2017-03-29T08:16:26.576Z,865
2017-03-29T08:17:27.815Z,690
2017-03-29T08:18:29.088Z,580
2017-03-29T08:19:30.333Z,525
2017-03-29T08:20:31.604Z,475
2017-03-29T08:21:32.881Z,465
2017-03-29T08:22:34.158Z,560
2017-03-29T08:23:35.450Z,605
2017-03-29T08:24:36.762Z,560
2017-03-29T08:25:38.008Z,490
2017-03-29T08:26:39.281Z,465
2017-03-29T08:27:40.560Z,405
2017-03-29T08:28:41.786Z,415
2017-03-29T08:29:43.118Z,470
2017-03-29T08:30:44.384Z,540
2017-03-29T08:31:45.647Z,510
2017-03-29T08:32:46.891Z,430
2017-03-29T08:33:48.310Z,410
2017-03-29T08:34:49.470Z,425
2017-03-29T08:35:50.784Z,395
2017-03-29T08:36:52.026Z,420
2017-03-29T08:37:53.275Z,465
2017-03-29T08:38:54.595Z,605
2017-03-29T08:39:55.836Z,655
2017-03-29T08:40:57.084Z,690
2017-03-29T08:41:58.345Z,770
2017-03-29T08:42:59.584Z,690
2017-03-29T08:44:00.904Z,610
2017-03-29T08:45:02.153Z,625
2017-03-29T08:46:03.426Z,820
2017-03-29T08:47:04.681Z,985
2017-03-29T08:48:05.963Z,1230
2017-03-29T08:49:07.253Z,1250
2017-03-29T08:50:08.522Z,1050
2017-03-29T08:51:09.743Z,975
2017-03-29T08:52:11.035Z,900
2017-03-29T08:53:12.277Z,865
2017-03-29T08:54:13.580Z,930
2017-03-29T08:55:14.901Z,965
2017-03-29T08:56:16.151Z,1155
2017-03-29T08:57:17.433Z,1315
2017-03-29T08:58:18.702Z,1355
2017-03-29T08:59:20.019Z,1200
2017-03-29T09:00:21.282Z,1510
2017-03-29T09:01:22.531Z,1310
2017-03-29T09:02:23.778Z,1420
2017-03-29T09:03:25.046Z,1205
2017-03-29T09:04:26.359Z,1380
2017-03-29T09:05:27.624Z,1295
2017-03-29T09:06:28.896Z,1120
2017-03-29T09:07:30.145Z,1265
2017-03-29T09:08:31.397Z,1470
2017-03-29T09:09:32.657Z,1225
2017-03-29T09:10:33.904Z,1310
2017-03-29T09:11:35.205Z,1085
2017-03-29T09:12:36.499Z,885
2017-03-29T09:13:37.750Z,955
2017-03-29T09:14:39.004Z,770
2017-03-29T09:15:40.297Z,735
2017-03-29T09:16:41.520Z,670
2017-03-29T09:17:42.782Z,625
2017-03-29T09:18:44.031Z,580
2017-03-29T09:19:45.413Z,490
2017-03-29T09:20:46.653Z,430
2017-03-29T09:21:47.948Z,395
2017-03-29T09:22:49.180Z,345
2017-03-29T09:23:50.426Z,345
2017-03-29T09:24:51.674Z,420
2017-03-29T09:25:53.006Z,525
2017-03-29T09:26:54.275Z,580
2017-03-29T09:27:55.506Z,600
2017-03-29T09:28:56.773Z,570
2017-03-29T09:29:58.103Z,545
2017-03-29T09:30:59.376Z,535
2017-03-29T09:32:00.604Z,560
2017-03-29T09:33:01.851Z,655
2017-03-29T09:34:03.132Z,630
2017-03-29T09:35:04.479Z,565
2017-03-29T09:36:05.751Z,540
2017-03-29T09:37:07.109Z,525
2017-03-29T09:38:08.548Z,530
2017-03-29T09:39:09.801Z,585
2017-03-29T09:40:11.108Z,640
2017-03-29T09:41:12.467Z,655
2017-03-29T09:42:13.812Z,620
2017-03-29T09:43:15.081Z,545
2017-03-29T09:44:16.329Z,500
2017-03-29T09:45:17.568Z,480
2017-03-29T09:46:18.839Z,455
2017-03-29T09:47:20.075Z,415
2017-03-29T09:48:21.364Z,370
2017-03-29T09:49:22.603Z,325
2017-03-29T09:50:23.861Z,325
2017-03-29T09:51:25.171Z,325
2017-03-29T09:52:26.473Z,325
2017-03-29T09:53:27.650Z,300
2017-03-29T09:54:28.981Z,285
2017-03-29T09:55:30.224Z,300
2017-03-29T09:56:31.467Z,340
2017-03-29T09:57:32.809Z,355
2017-03-29T09:58:33.958Z,395
2017-03-29T09:59:35.305Z,450
2017-03-29T10:00:36.558Z,470
2017-03-29T10:01:37.797Z,440
2017-03-29T10:02:39.046Z,395
2017-03-29T10:03:40.312Z,405
2017-03-29T10:04:41.572Z,410
2017-03-29T10:05:42.820Z,430
2017-03-29T10:06:44.064Z,480
2017-03-29T10:07:45.310Z,535
2017-03-29T10:08:46.567Z,560
2017-03-29T10:09:47.821Z,540
2017-03-29T10:10:49.210Z,495
2017-03-29T10:11:50.464Z,445
2017-03-29T10:12:51.727Z,395
2017-03-29T10:13:53.123Z,390
2017-03-29T10:14:54.363Z,400
2017-03-29T10:15:55.605Z,375
2017-03-29T10:16:56.915Z,360
2017-03-29T10:17:58.154Z,330
2017-03-29T10:18:59.398Z,345
2017-03-29T10:20:00.664Z,360
2017-03-29T10:21:01.902Z,350
2017-03-29T10:22:03.275Z,370
2017-03-29T10:23:04.525Z,395
2017-03-29T10:24:05.797Z,380
2017-03-29T10:25:07.055Z,355
2017-03-29T10:26:08.296Z,340
2017-03-29T10:27:09.578Z,385
2017-03-29T10:28:10.941Z,425
2017-03-29T10:29:12.318Z,410
2017-03-29T10:30:13.556Z,455
2017-03-29T10:31:14.789Z,470
2017-03-29T10:32:16.030Z,465
2017-03-29T10:33:17.280Z,475
2017-03-29T10:34:18.539Z,440
2017-03-29T10:35:19.767Z,435
2017-03-29T10:36:21.016Z,475
2017-03-29T10:37:22.260Z,425
2017-03-29T10:38:23.634Z,365
2017-03-29T10:39:24.874Z,315
2017-03-29T10:40:26.112Z,365
2017-03-29T10:41:27.368Z,320
2017-03-29T10:42:28.644Z,295
2017-03-29T10:43:29.876Z,390
2017-03-29T10:44:31.211Z,405
2017-03-29T10:45:32.460Z,410
2017-03-29T10:46:33.717Z,315
2017-03-29T10:47:35.103Z,280
2017-03-29T10:48:36.513Z,270
2017-03-29T10:49:37.862Z,245
2017-03-29T10:50:39.186Z,275
2017-03-29T10:51:40.430Z,235
2017-03-29T10:52:41.701Z,265
2017-03-29T10:53:42.980Z,275
2017-03-29T10:54:44.219Z,285
2017-03-29T10:55:45.492Z,380
2017-03-29T10:56:46.716Z,285
2017-03-29T10:57:47.980Z,280
2017-03-29T10:58:49.291Z,295
2017-03-29T10:59:50.624Z,405
2017-03-29T11:00:51.876Z,355
2017-03-29T11:01:53.218Z,345
2017-03-29T11:02:54.461Z,340
2017-03-29T11:03:55.692Z,355
2017-03-29T11:04:56.970Z,385
2017-03-29T11:05:58.259Z,405
2017-03-29T11:06:59.482Z,330
2017-03-29T11:08:00.732Z,290
2017-03-29T11:09:01.969Z,310
2017-03-29T11:10:03.252Z,320
2017-03-29T11:11:04.496Z,330
2017-03-29T11:12:05.747Z,320
2017-03-29T11:13:07.092Z,340
2017-03-29T11:14:08.333Z,315
2017-03-29T11:15:09.579Z,300
2017-03-29T11:16:10.862Z,335
2017-03-29T11:17:12.111Z,375
2017-03-29T11:18:13.360Z,410
2017-03-29T11:19:14.626Z,375
2017-03-29T11:20:15.867Z,335
2017-03-29T11:21:17.157Z,325
2017-03-29T11:22:18.379Z,320
2017-03-29T11:23:19.633Z,300
2017-03-29T11:24:20.885Z,280
2017-03-29T11:25:22.160Z,245
2017-03-29T11:26:23.403Z,225
2017-03-29T11:27:24.640Z,235
2017-03-29T11:28:25.915Z,200
2017-03-29T11:29:27.249Z,195
2017-03-29T11:30:28.492Z,195
2017-03-29T11:31:29.741Z,190
2017-03-29T11:32:30.999Z,200
2017-03-29T11:33:32.270Z,230
2017-03-29T11:34:33.517Z,315
2017-03-29T11:35:34.906Z,355
2017-03-29T11:36:36.191Z,425
2017-03-29T11:37:37.510Z,505
2017-03-29T11:38:38.763Z,520
2017-03-29T11:39:40.006Z,740
2017-03-29T11:40:41.265Z,645
2017-03-29T11:41:42.519Z,610
2017-03-29T11:42:43.806Z,655
2017-03-29T11:43:45.102Z,610
2017-03-29T11:44:46.329Z,500
2017-03-29T11:45:47.585Z,630
2017-03-29T11:46:48.841Z,570
2017-03-29T11:47:50.116Z,615
2017-03-29T11:48:51.379Z,695
2017-03-29T11:49:52.632Z,685
2017-03-29T11:50:53.881Z,670
2017-03-29T11:51:55.143Z,715
2017-03-29T11:52:56.379Z,705
2017-03-29T11:53:57.627Z,725
2017-03-29T11:54:58.998Z,755
2017-03-29T11:56:00.252Z,735
2017-03-29T11:57:01.491Z,720
2017-03-29T11:58:02.730Z,740
2017-03-29T11:59:03.980Z,695
2017-03-29T12:00:05.326Z,710
2017-03-29T12:01:06.854Z,750
2017-03-29T12:02:08.305Z,735
2017-03-29T12:03:09.548Z,710
2017-03-29T12:04:10.825Z,730
2017-03-29T12:05:12.088Z,750
2017-03-29T12:06:13.305Z,745
2017-03-29T12:07:14.580Z,725
2017-03-29T12:08:15.997Z,700
2017-03-29T12:09:17.226Z,750
2017-03-29T12:10:18.495Z,710
2017-03-29T12:11:19.744Z,675
2017-03-29T12:12:21.003Z,640
2017-03-29T12:13:22.240Z,640
2017-03-29T12:14:23.495Z,605
2017-03-29T12:15:24.752Z,495
2017-03-29T12:16:26.003Z,405
2017-03-29T12:17:27.427Z,290
2017-03-29T12:18:28.717Z,230
2017-03-29T12:19:29.978Z,200
2017-03-29T12:20:31.239Z,225
2017-03-29T12:21:32.465Z,250
2017-03-29T12:22:33.714Z,300
2017-03-29T12:23:35.032Z,215
2017-03-29T12:24:36.375Z,225
2017-03-29T12:25:37.641Z,205
2017-03-29T12:26:39.031Z,210
2017-03-29T12:27:40.267Z,205
2017-03-29T12:28:41.506Z,200
2017-03-29T12:29:42.756Z,265
2017-03-29T12:30:44.021Z,255
2017-03-29T12:31:45.323Z,260
2017-03-29T12:32:46.564Z,445
2017-03-29T12:33:47.803Z,475
2017-03-29T12:34:49.044Z,400
2017-03-29T12:35:50.292Z,375
2017-03-29T12:36:51.619Z,380
2017-03-29T12:37:52.872Z,465
2017-03-29T12:38:54.110Z,355
2017-03-29T12:39:55.419Z,220
2017-03-29T12:40:56.721Z,255
2017-03-29T12:41:57.919Z,360
2017-03-29T12:42:59.178Z,345
2017-03-29T12:44:00.473Z,360
2017-03-29T12:45:01.707Z,300
2017-03-29T12:46:02.963Z,330
2017-03-29T12:47:04.214Z,295
2017-03-29T12:48:05.462Z,300
2017-03-29T12:49:06.804Z,255
2017-03-29T12:50:08.067Z,220
2017-03-29T12:51:09.292Z,235
2017-03-29T12:52:10.545Z,295
2017-03-29T12:53:11.789Z,340
2017-03-29T12:54:13.166Z,350
2017-03-29T12:55:14.431Z,320
2017-03-29T12:56:15.663Z,335
2017-03-29T12:57:16.954Z,330
2017-03-29T12:58:18.200Z,320
2017-03-29T12:59:19.460Z,415
2017-03-29T13:00:20.730Z,415
2017-03-29T13:01:21.954Z,295
2017-03-29T13:02:23.191Z,190
2017-03-29T13:03:24.436Z,135
2017-03-29T13:04:25.685Z,135
2017-03-29T13:05:27.066Z,130
2017-03-29T13:06:28.233Z,150
2017-03-29T13:07:29.466Z,195
2017-03-29T13:08:30.713Z,260
2017-03-29T13:09:31.975Z,275
2017-03-29T13:10:33.224Z,265
2017-03-29T13:11:34.672Z,270
2017-03-29T13:12:35.902Z,205
2017-03-29T13:13:37.151Z,135
2017-03-29T13:14:38.410Z,110
2017-03-29T13:15:39.658Z,100
2017-03-29T13:16:40.948Z,110
2017-03-29T13:17:42.183Z,105
2017-03-29T13:18:43.505Z,95
2017-03-29T13:19:44.758Z,95
2017-03-29T13:20:46.114Z,105
2017-03-29T13:21:47.393Z,100
2017-03-29T13:22:48.639Z,100
2017-03-29T13:23:49.878Z,105
2017-03-29T13:24:51.242Z,105
2017-03-29T13:25:52.495Z,110
2017-03-29T13:26:53.778Z,125
2017-03-29T13:27:55.053Z,140
2017-03-29T13:28:56.299Z,155
2017-03-29T13:29:57.578Z,165
2017-03-29T13:30:58.846Z,160
2017-03-29T13:32:00.084Z,145
2017-03-29T13:33:01.336Z,135
2017-03-29T13:34:02.581Z,125
2017-03-29T13:35:03.843Z,110
2017-03-29T13:36:05.159Z,95
2017-03-29T13:37:06.387Z,120
2017-03-29T13:38:07.689Z,130
2017-03-29T13:39:08.915Z,165
2017-03-29T13:40:10.166Z,190
2017-03-29T13:41:11.421Z,200
2017-03-29T13:42:12.664Z,200
2017-03-29T13:43:13.912Z,195
2017-03-29T13:44:15.174Z,205
2017-03-29T13:45:16.481Z,195
2017-03-29T13:46:17.814Z,210
2017-03-29T13:47:19.096Z,265
2017-03-29T13:48:20.338Z,280
2017-03-29T13:49:21.699Z,310
2017-03-29T13:50:22.964Z,350
2017-03-29T13:51:24.228Z,365
2017-03-29T13:52:25.484Z,360
2017-03-29T13:53:26.743Z,345
2017-03-29T13:54:27.992Z,315
2017-03-29T13:55:29.349Z,305
2017-03-29T13:56:30.643Z,310
2017-03-29T13:57:31.994Z,315
2017-03-29T13:58:33.260Z,315
2017-03-29T13:59:34.494Z,295
2017-03-29T14:00:35.759Z,285
2017-03-29T14:01:37.099Z,300
2017-03-29T14:02:38.350Z,310
2017-03-29T14:03:39.646Z,295
2017-03-29T14:04:40.892Z,300
2017-03-29T14:05:42.136Z,275
2017-03-29T14:06:43.364Z,240
2017-03-29T14:07:44.650Z,210
2017-03-29T14:08:45.952Z,195
2017-03-29T14:09:47.209Z,190
2017-03-29T14:10:48.485Z,195
2017-03-29T14:11:49.710Z,190
2017-03-29T14:12:50.991Z,195
2017-03-29T14:13:52.280Z,200
2017-03-29T14:14:53.610Z,190
2017-03-29T14:15:54.862Z,195
2017-03-29T14:16:56.091Z,185
2017-03-29T14:17:57.333Z,220
2017-03-29T14:18:58.592Z,215
2017-03-29T14:19:59.852Z,210
2017-03-29T14:21:01.101Z,185
2017-03-29T14:22:02.409Z,180
2017-03-29T14:23:03.683Z,165
2017-03-29T14:24:04.908Z,135
2017-03-29T14:25:06.159Z,130
2017-03-29T14:26:07.549Z,115
2017-03-29T14:27:08.845Z,115